Misratah, Libya
Current Conditions -  °F | °C
As of 2:50 PM on Thursday 23 Oct 2014 (Local Time) from HLLM Reporting Station
Broken Clouds Broken Clouds  
Wind Chill: 75°   Ceiling: 3500
Heat Index: 75°   Visibility: 4mi
Dew Point: 54°   Wind: 9mph
Humidity: 47%   Direction: 300°WNW
Pressure: 29.97"   Gusts: 23mph
Location:  32.38°N, 15.09°E
Report Text: HLLM 231150Z 30008G20KT 7000 BKN035 24/12 Q1015
Loading
Personal Weather Stations






























Interactive Weather Map New forecast layout! Learn more

10-Day Weather Forecast

Advertisements
Track Severe Weather on mobile